• Join FlightAware (Why Join?)
  • Login
  • US Flag 
08:34AM EDT


 

Airport Tracker/Info


-or-


 

Live Flight TrackerFlight Track Log ✈ SWA2058 ✈ 04-Jan-2014 ✈ KSAN - KSFO

Flight Track Log - Related Links

Times and Time Zones

All times are in EST time to prevent confusion due to time zone crossing. See the SWA2058 flight status page for this flight to view local times or setup timezone preferences in your user account.

Time Position Orientation Groundspeed Altitude Reporting Facility
EST Latitude Longitude Course Direction KTS MPH feet Rate Location/Type
08:49PM 32.7667 -117.2667 305° West 229 264 3,000  Level Southern California TRACON
08:50PM 32.7992 -117.3217 305° West 240 276 5,400 3,060 Climbing Los Angeles Center
08:51PM 32.8378 -117.3983 301° West 263 303 8,700 2,520 Climbing Los Angeles Center
08:52PM 32.8822 -117.4797 303° West 285 328 10,700 2,640 Climbing Los Angeles Center
08:53PM 32.9761 -117.5564 326° Northwest 336 387 14,800 2,940 Climbing Los Angeles Center
08:54PM 33.0458 -117.6200 323° Northwest 323 372 17,400 2,340 Climbing Los Angeles Center
08:55PM 33.0997 -117.7111 305° West 331 381 19,700 1,740 Climbing Los Angeles Center
08:56PM 33.1600 -117.8008 309° West 341 392 21,000 1,140 Climbing Los Angeles Center
08:57PM 33.2472 -117.9231 310° West 393 452 22,100 1,500 Climbing Los Angeles Center
08:58PM 33.3242 -118.0336 310° West 422 486 24,100 1,740 Climbing Los Angeles Center
08:59PM 33.4008 -118.1453 309° West 430 495 25,700 1,380 Climbing Los Angeles Center
09:00PM 33.4794 -118.2592 310° West 437 503 27,000 1,260 Climbing Los Angeles Center
09:01PM 33.5608 -118.3778 309° West 448 516 28,400 1,500 Climbing Los Angeles Center
09:02PM 33.6442 -118.4992 310° West 459 528 30,100 1,740 Climbing Los Angeles Center
09:04PM 33.7253 -118.6150 310° West 449 517 32,100 1,680 Climbing Los Angeles Center
09:05PM 33.8086 -118.7194 314° West 434 499 33,600 900 Climbing Los Angeles Center
09:06PM 33.8936 -118.8200 316° Northwest 428 493 34,000 180 Climbing Los Angeles Center
09:07PM 33.9969 -118.9422 316° Northwest 432 497 34,000  Level Los Angeles Center
09:08PM 34.0811 -119.0431 315° West 429 494 34,000  Level Los Angeles Center
09:09PM 34.1653 -119.1433 315° West 426 490 34,000  Level Los Angeles Center
09:10PM 34.2492 -119.2447 315° West 427 491 34,000  Level Los Angeles Center
09:11PM 34.3331 -119.3461 315° West 427 491 34,000  Level Los Angeles Center
09:12PM 34.4183 -119.4472 316° Northwest 429 494 34,000  Level Los Angeles Center
09:13PM 34.5025 -119.5508 315° West 431 496 34,000  Level Los Angeles Center
09:14PM 34.6047 -119.6744 315° West 432 497 34,000  Level Los Angeles Center
09:15PM 34.6897 -119.7761 315° West 433 498 34,000  Level Los Angeles Center
09:16PM 34.7758 -119.8794 315° West 434 499 34,000  Level Los Angeles Center
09:17PM 34.8614 -119.9836 315° West 434 499 34,000  Level Los Angeles Center
09:18PM 34.9472 -120.0883 315° West 435 501 34,000  Level Los Angeles Center
09:19PM 35.0308 -120.1925 314° West 438 504 34,000  Level Los Angeles Center
09:20PM 35.1164 -120.2983 315° West 440 506 34,000  Level Los Angeles Center
09:21PM 35.2175 -120.4231 315° West 436 502 34,000  Level Los Angeles Center
09:22PM 35.3025 -120.5297 314° West 440 506 34,000  Level Los Angeles Center
09:23PM 35.3875 -120.6361 314° West 441 507 34,000  Level Los Angeles Center
09:24PM 35.4817 -120.7286 321° Northwest 435 501 34,000  Level Los Angeles Center
09:25PM 35.5767 -120.8194 322° Northwest 434 499 34,000  Level Los Angeles Center
09:26PM 35.6844 -120.9239 322° Northwest 436 502 34,000  Level Los Angeles Center
09:27PM 35.7797 -121.0142 322° Northwest 434 499 34,000  Level Oakland Center
09:28PM 35.8747 -121.1078 321° Northwest 435 501 34,000  Level Oakland Center
09:29PM 35.9708 -121.2000 322° Northwest 435 501 34,000  Level Oakland Center
09:30PM 36.0672 -121.2928 322° Northwest 438 504 34,000 -780 Level Oakland Center
09:31PM 36.1628 -121.3861 322° Northwest 440 506 32,500 -2,340 Descending Oakland Center
09:32PM 36.2772 -121.4992 321° Northwest 439 505 29,300 -2,820 Descending Oakland Center
09:33PM 36.3700 -121.5900 322° Northwest 427 491 26,800 -2,400 Descending Oakland Center
09:34PM 36.4581 -121.6781 321° Northwest 407 468 24,500 -2,280 Descending Oakland Center
09:35PM 36.5442 -121.7628 322° Northwest 396 456 22,200 -2,340 Descending Oakland Center
09:36PM 36.6167 -121.8500 316° Northwest 384 442 20,000 -1,980 Descending Northern Cal TRACON
09:37PM 36.7000 -121.9167 327° Northwest 368 423 18,500 -1,560 Descending Northern Cal TRACON
09:38PM 36.8000 -121.9833 332° Northwest 363 418 16,900 -1,800 Descending Northern Cal TRACON
09:39PM 36.8833 -122.0000 351° North 346 398 14,900 -2,040 Descending Northern Cal TRACON
09:40PM 36.9833 -122.0333 345° North 333 383 12,900 -1,920 Descending Northern Cal TRACON
09:41PM 37.0667 -122.0500 351° North 319 367 11,100 -1,440 Descending Northern Cal TRACON
09:42PM 37.1500 -122.0667 351° North 300 345 10,100 -900 Descending Northern Cal TRACON
09:43PM 37.2333 -122.1000 342° North 274 315 9,300 -1,260 Descending Northern Cal TRACON
09:44PM 37.3000 -122.1167 349° North 261 300 7,600 -1,740 Descending Northern Cal TRACON
09:45PM 37.3667 -122.1333 349° North 265 305 6,000 -1,320 Descending Northern Cal TRACON
09:46PM 37.4333 -122.1500 349° North 243 280 5,000 -660 Descending Northern Cal TRACON
09:47PM 37.5000 -122.1667 349° North 200 230 4,700 -1,020 Descending Northern Cal TRACON
09:48PM 37.5333 -122.2000 322° Northwest 195 224 3,000 -1,620 Descending Northern Cal TRACON
09:49PM 37.5667 -122.2500 310° West 188 216 1,500 -1,080 Descending Northern Cal TRACON
09:50PM 37.5833 -122.3000 293° West 148 170 900 -660 Descending Northern Cal TRACON
09:51PM 37.6167 -122.3500 310° West 146 168 200 -720 Descending Northern Cal TRACON
09:54PM 37.6167 -122.3667 322° Northwest  Level FlightAware Approximate